Time;durP1;ratioP1;P1;durP2;ratioP2;P2;SDS_P1;SDS_P2;PMS_P1;PMS_P2;Temp;Humidity;BMP_temperature;BMP_pressure;BME280_temperature;BME280_humidity;BME280_pressure;Samples;Min_cycle;Max_cycle;Signal;HPM_P1;HPM_P2
2023/08/18 00:01:32;;;;;;;2.87;1.43;;;;;;;;;;5065336;28;20499;-56
2023/08/18 00:04:00;;;;;;;3.13;2.13;;;;;;;;;;5070151;28;20444;-56
2023/08/18 00:06:27;;;;;;;2.93;1.80;;;;;;;;;;5059292;28;20557;-57
2023/08/18 00:08:54;;;;;;;2.00;1.43;;;;;;;;;;5052571;28;20886;-55
2023/08/18 00:11:21;;;;;;;2.90;1.30;;;;;;;;;;5052240;28;20488;-57
2023/08/18 00:13:49;;;;;;;3.67;2.30;;;;;;;;;;5070069;28;20476;-56
2023/08/18 00:16:16;;;;;;;3.47;1.93;;;;;;;;;;5070990;28;20529;-56
2023/08/18 00:18:44;;;;;;;2.67;1.53;;;;;;;;;;5052375;28;20932;-57
2023/08/18 00:21:12;;;;;;;3.23;1.50;;;;;;;;;;5055866;28;20461;-57
2023/08/18 00:23:39;;;;;;;4.20;1.90;;;;;;;;;;5064963;28;21018;-57
2023/08/18 00:26:08;;;;;;;3.47;1.57;;;;;;;;;;5072205;28;20441;-57
2023/08/18 00:28:36;;;;;;;2.60;1.57;;;;;;;;;;5069685;28;20960;-57
2023/08/18 00:31:03;;;;;;;2.37;1.40;;;;;;;;;;5059439;28;21048;-56
2023/08/18 00:33:30;;;;;;;2.60;1.60;;;;;;;;;;5050682;28;20532;-56
2023/08/18 00:35:59;;;;;;;6.10;1.57;;;;;;;;;;5064874;28;20455;-56
2023/08/18 00:38:26;;;;;;;3.30;1.90;;;;;;;;;;5070073;28;20532;-57
2023/08/18 00:40:55;;;;;;;2.73;1.40;;;;;;;;;;5070179;28;20524;-56
2023/08/18 00:43:22;;;;;;;3.83;1.90;;;;;;;;;;5070303;28;20451;-57
2023/08/18 00:45:50;;;;;;;2.57;1.60;;;;;;;;;;5070023;28;20517;-56
2023/08/18 00:48:17;;;;;;;9.50;2.90;;;;;;;;;;5069315;28;20519;-58
2023/08/18 00:50:44;;;;;;;2.63;1.47;;;;;;;;;;5053642;28;20862;-56
2023/08/18 00:53:13;;;;;;;4.80;2.53;;;;;;;;;;5062357;28;21006;-57
2023/08/18 00:55:41;;;;;;;3.03;1.77;;;;;;;;;;5052299;28;20537;-57
2023/08/18 00:58:08;;;;;;;2.47;1.53;;;;;;;;;;5051597;28;20908;-56
2023/08/18 01:00:36;;;;;;;2.40;1.50;;;;;;;;;;5054492;28;20495;-57
2023/08/18 01:03:04;;;;;;;3.83;1.70;;;;;;;;;;5056519;28;20457;-57
2023/08/18 01:05:32;;;;;;;3.27;1.67;;;;;;;;;;5061140;28;21006;-55
2023/08/18 01:07:59;;;;;;;2.73;1.70;;;;;;;;;;5057257;28;20473;-56
2023/08/18 01:10:29;;;;;;;2.70;1.60;;;;;;;;;;5051834;28;20472;-55
2023/08/18 01:13:07;;;;;;;2.73;1.50;;;;;;;;;;5050970;28;20523;-57
2023/08/18 01:15:36;;;;;;;3.33;1.60;;;;;;;;;;5052604;28;20445;-55
2023/08/18 01:18:04;;;;;;;4.40;1.93;;;;;;;;;;5052459;28;20434;-56
2023/08/18 01:20:32;;;;;;;2.57;1.17;;;;;;;;;;5051628;28;20437;-55
2023/08/18 01:23:01;;;;;;;2.97;1.60;;;;;;;;;;5062261;28;20548;-55
2023/08/18 01:25:28;;;;;;;2.67;1.70;;;;;;;;;;5051105;28;21101;-57
2023/08/18 01:27:56;;;;;;;3.43;1.80;;;;;;;;;;5051218;28;20575;-56
2023/08/18 01:30:25;;;;;;;3.30;1.70;;;;;;;;;;5051630;28;20525;-56
2023/08/18 01:32:53;;;;;;;3.43;1.60;;;;;;;;;;5055679;28;20894;-56
2023/08/18 01:35:20;;;;;;;3.43;1.77;;;;;;;;;;5062922;28;20510;-56
2023/08/18 01:37:48;;;;;;;3.27;2.10;;;;;;;;;;5050603;28;20991;-56
2023/08/18 01:40:17;;;;;;;3.27;1.73;;;;;;;;;;5053542;28;20519;-57
2023/08/18 01:42:45;;;;;;;4.63;1.60;;;;;;;;;;5056414;28;20828;-57
2023/08/18 01:45:14;;;;;;;2.83;1.63;;;;;;;;;;5062897;28;20472;-56
2023/08/18 01:47:42;;;;;;;5.00;1.40;;;;;;;;;;5068765;28;20559;-57
2023/08/18 01:50:10;;;;;;;3.30;1.40;;;;;;;;;;5070193;28;21030;-57
2023/08/18 01:52:37;;;;;;;2.50;1.50;;;;;;;;;;5057364;28;20471;-55
2023/08/18 01:55:04;;;;;;;2.87;1.33;;;;;;;;;;5070846;28;20483;-57
2023/08/18 01:57:33;;;;;;;3.73;1.80;;;;;;;;;;5070529;28;20471;-57
2023/08/18 02:00:00;;;;;;;2.20;1.60;;;;;;;;;;5069651;28;20435;-57
2023/08/18 02:02:27;;;;;;;2.70;1.20;;;;;;;;;;5050182;28;20820;-56
2023/08/18 02:04:56;;;;;;;2.40;1.20;;;;;;;;;;5057863;28;20484;-57
2023/08/18 02:07:24;;;;;;;2.40;1.37;;;;;;;;;;5051692;28;21049;-56
2023/08/18 02:09:51;;;;;;;4.07;1.57;;;;;;;;;;5061616;28;20959;-57
2023/08/18 02:12:18;;;;;;;2.73;1.23;;;;;;;;;;5054977;28;20496;-57
2023/08/18 02:14:47;;;;;;;2.10;1.23;;;;;;;;;;5054717;28;20468;-57
2023/08/18 02:17:14;;;;;;;2.23;1.30;;;;;;;;;;5051347;28;20524;-56
2023/08/18 02:19:42;;;;;;;3.70;1.50;;;;;;;;;;5059612;28;20448;-56
2023/08/18 02:22:09;;;;;;;2.93;1.83;;;;;;;;;;5060308;28;20515;-55
2023/08/18 02:24:36;;;;;;;2.77;1.40;;;;;;;;;;5067558;28;20472;-55
2023/08/18 02:27:03;;;;;;;3.50;2.00;;;;;;;;;;5069231;28;20468;-56
2023/08/18 02:29:31;;;;;;;3.10;1.57;;;;;;;;;;5051797;28;20825;-55
2023/08/18 02:31:59;;;;;;;4.67;1.83;;;;;;;;;;5082861;22;20483;-56
2023/08/18 02:34:26;;;;;;;2.53;1.90;;;;;;;;;;5071057;28;20932;-57
2023/08/18 02:36:54;;;;;;;2.80;1.87;;;;;;;;;;5089240;28;20482;-57
2023/08/18 02:39:21;;;;;;;3.20;1.70;;;;;;;;;;5090104;28;20547;-57
2023/08/18 02:41:51;;;;;;;3.20;1.60;;;;;;;;;;5097115;28;20462;-57
2023/08/18 02:44:20;;;;;;;2.53;1.20;;;;;;;;;;5101949;28;20447;-57
2023/08/18 02:46:48;;;;;;;3.33;1.47;;;;;;;;;;5092839;28;20472;-57
2023/08/18 02:49:16;;;;;;;2.83;1.60;;;;;;;;;;5106820;28;20839;-57
2023/08/18 02:51:43;;;;;;;2.17;1.37;;;;;;;;;;5089603;28;20814;-58
2023/08/18 02:54:11;;;;;;;3.43;1.73;;;;;;;;;;5090042;28;20518;-59
2023/08/18 02:56:38;;;;;;;2.33;1.33;;;;;;;;;;5090749;28;20463;-57
2023/08/18 02:59:06;;;;;;;3.07;1.50;;;;;;;;;;5090377;28;20931;-57
2023/08/18 03:01:33;;;;;;;2.53;1.67;;;;;;;;;;5089955;28;20823;-57
2023/08/18 03:04:01;;;;;;;2.57;1.40;;;;;;;;;;5090363;28;20473;-57
2023/08/18 03:06:29;;;;;;;2.27;1.50;;;;;;;;;;5090071;28;20547;-56
2023/08/18 03:08:56;;;;;;;2.90;1.43;;;;;;;;;;5090099;28;20562;-55
2023/08/18 03:11:24;;;;;;;3.10;1.90;;;;;;;;;;5090222;28;20974;-57
2023/08/18 03:13:51;;;;;;;2.30;1.50;;;;;;;;;;5090119;28;21001;-56
2023/08/18 03:16:19;;;;;;;2.53;1.27;;;;;;;;;;5092116;28;20460;-56
2023/08/18 03:18:46;;;;;;;3.53;1.50;;;;;;;;;;5093738;28;21023;-56
2023/08/18 03:21:13;;;;;;;3.40;1.53;;;;;;;;;;5093682;28;20958;-57
2023/08/18 03:23:42;;;;;;;2.63;1.60;;;;;;;;;;5093486;28;20527;-57
2023/08/18 03:26:09;;;;;;;4.60;1.50;;;;;;;;;;5093644;28;20475;-56
2023/08/18 03:28:37;;;;;;;2.27;1.30;;;;;;;;;;5094019;28;20481;-58
2023/08/18 03:31:05;;;;;;;2.03;1.20;;;;;;;;;;5093792;28;20449;-57
2023/08/18 03:33:32;;;;;;;2.60;1.70;;;;;;;;;;5093434;28;20520;-57
2023/08/18 03:36:00;;;;;;;2.67;1.70;;;;;;;;;;5093589;28;20482;-57
2023/08/18 03:38:27;;;;;;;3.73;1.90;;;;;;;;;;5093807;28;20435;-57
2023/08/18 03:41:00;;;;;;;2.77;1.80;;;;;;;;;;5092969;28;20439;-59
2023/08/18 03:43:27;;;;;;;3.27;1.70;;;;;;;;;;5091613;28;20997;-57
2023/08/18 03:45:56;;;;;;;2.00;1.40;;;;;;;;;;5093530;28;20471;-57
2023/08/18 03:48:24;;;;;;;3.87;1.83;;;;;;;;;;5093542;28;20760;-56
2023/08/18 03:50:51;;;;;;;1.70;0.83;;;;;;;;;;5093172;28;20531;-58
2023/08/18 03:53:22;;;;;;;2.40;1.47;;;;;;;;;;5093544;28;20561;-60
2023/08/18 03:55:51;;;;;;;3.57;1.97;;;;;;;;;;5093321;28;20447;-59
2023/08/18 03:58:19;;;;;;;2.20;1.50;;;;;;;;;;5093142;28;20468;-59
2023/08/18 04:00:46;;;;;;;6.03;1.70;;;;;;;;;;5093177;28;20464;-56
2023/08/18 04:03:14;;;;;;;1.87;1.23;;;;;;;;;;5093079;28;20455;-56
2023/08/18 04:05:45;;;;;;;3.30;1.60;;;;;;;;;;5092332;28;20527;-58
2023/08/18 04:08:14;;;;;;;3.30;1.33;;;;;;;;;;5091439;28;20546;-56
2023/08/18 04:10:41;;;;;;;2.50;1.43;;;;;;;;;;5091670;28;20462;-57
2023/08/18 04:13:08;;;;;;;3.17;1.80;;;;;;;;;;5091193;28;20950;-57
2023/08/18 04:15:37;;;;;;;3.90;1.77;;;;;;;;;;5091956;28;20440;-58
2023/08/18 04:18:04;;;;;;;2.50;1.70;;;;;;;;;;5091643;28;20497;-57
2023/08/18 04:20:32;;;;;;;4.43;1.73;;;;;;;;;;5091131;28;20475;-58
2023/08/18 04:22:59;;;;;;;3.97;1.80;;;;;;;;;;5090829;28;20492;-55
2023/08/18 04:25:26;;;;;;;3.17;1.50;;;;;;;;;;5090725;28;21005;-56
2023/08/18 04:27:53;;;;;;;2.93;1.67;;;;;;;;;;5095313;28;20573;-58
2023/08/18 04:30:21;;;;;;;2.70;1.70;;;;;;;;;;5099034;28;20475;-56
2023/08/18 04:32:50;;;;;;;3.63;2.00;;;;;;;;;;5109201;28;20879;-56
2023/08/18 04:35:17;;;;;;;2.40;1.50;;;;;;;;;;5103200;28;20447;-57
2023/08/18 04:37:44;;;;;;;3.10;1.40;;;;;;;;;;5112419;28;20533;-56
2023/08/18 04:40:12;;;;;;;2.97;1.57;;;;;;;;;;5105673;28;20474;-57
2023/08/18 04:42:39;;;;;;;2.30;1.53;;;;;;;;;;5092373;28;20487;-58
2023/08/18 04:45:07;;;;;;;2.90;1.43;;;;;;;;;;5100859;28;20518;-56
2023/08/18 04:47:34;;;;;;;2.00;1.20;;;;;;;;;;5110734;28;20523;-56
2023/08/18 04:50:04;;;;;;;2.80;1.53;;;;;;;;;;5112542;28;20538;-58
2023/08/18 04:52:31;;;;;;;2.60;1.40;;;;;;;;;;5092648;28;20474;-59
2023/08/18 04:54:59;;;;;;;2.50;1.33;;;;;;;;;;5100687;28;20499;-58
2023/08/18 04:57:26;;;;;;;2.77;1.90;;;;;;;;;;5096812;28;20504;-57
2023/08/18 04:59:53;;;;;;;2.53;1.83;;;;;;;;;;5107192;28;20944;-58
2023/08/18 05:02:20;;;;;;;3.87;1.73;;;;;;;;;;5098279;28;20910;-57
2023/08/18 05:04:47;;;;;;;4.80;1.60;;;;;;;;;;5100490;28;20547;-56
2023/08/18 05:07:16;;;;;;;2.13;1.40;;;;;;;;;;5093611;28;20475;-56
2023/08/18 05:09:43;;;;;;;2.90;1.87;;;;;;;;;;5104466;28;20499;-57
2023/08/18 05:12:11;;;;;;;3.07;1.70;;;;;;;;;;5100082;28;20487;-57
2023/08/18 05:14:38;;;;;;;2.80;1.50;;;;;;;;;;5099905;28;20970;-57
2023/08/18 05:17:06;;;;;;;2.40;1.43;;;;;;;;;;5101097;28;20474;-57
2023/08/18 05:19:33;;;;;;;2.20;1.40;;;;;;;;;;5101154;28;20509;-58
2023/08/18 05:22:00;;;;;;;2.20;1.30;;;;;;;;;;5099120;28;20479;-56
2023/08/18 05:24:29;;;;;;;4.30;1.60;;;;;;;;;;5098663;28;20482;-56
2023/08/18 05:26:56;;;;;;;3.67;1.90;;;;;;;;;;5099884;28;20521;-58
2023/08/18 05:29:23;;;;;;;3.73;1.63;;;;;;;;;;5102841;28;20553;-55
2023/08/18 05:31:50;;;;;;;2.43;1.40;;;;;;;;;;5111336;28;20550;-56
2023/08/18 05:34:19;;;;;;;3.23;1.73;;;;;;;;;;5102101;28;20537;-56
2023/08/18 05:36:46;;;;;;;2.93;1.80;;;;;;;;;;5092511;28;20779;-58
2023/08/18 05:39:13;;;;;;;2.40;1.57;;;;;;;;;;5099066;28;20666;-56
2023/08/18 05:41:42;;;;;;;2.20;1.47;;;;;;;;;;5098166;28;20567;-55
2023/08/18 05:44:09;;;;;;;2.63;1.90;;;;;;;;;;5099158;28;20488;-56
2023/08/18 05:46:36;;;;;;;3.13;1.97;;;;;;;;;;5101638;28;20946;-57
2023/08/18 05:49:03;;;;;;;2.67;1.73;;;;;;;;;;5101815;28;20554;-58
2023/08/18 05:51:31;;;;;;;2.63;1.83;;;;;;;;;;5099164;28;20878;-58
2023/08/18 05:53:58;;;;;;;2.47;1.57;;;;;;;;;;5089861;28;20471;-58
2023/08/18 05:56:25;;;;;;;3.67;1.97;;;;;;;;;;5100721;28;20470;-55
2023/08/18 05:58:54;;;;;;;3.10;2.27;;;;;;;;;;5108780;28;20521;-57
2023/08/18 06:01:21;;;;;;;3.00;1.70;;;;;;;;;;5108990;28;20541;-58
2023/08/18 06:03:48;;;;;;;2.37;1.53;;;;;;;;;;5089400;28;20459;-57
2023/08/18 06:06:16;;;;;;;5.73;2.17;;;;;;;;;;5090727;28;20526;-58
2023/08/18 06:08:43;;;;;;;3.23;2.20;;;;;;;;;;5098492;28;20551;-57
2023/08/18 06:11:10;;;;;;;5.73;2.30;;;;;;;;;;5100399;28;20500;-56
2023/08/18 06:13:37;;;;;;;2.70;1.90;;;;;;;;;;5106682;28;20950;-57
2023/08/18 06:16:06;;;;;;;4.10;2.33;;;;;;;;;;5109088;28;20471;-58
2023/08/18 06:18:34;;;;;;;3.60;1.90;;;;;;;;;;5109633;28;20953;-58
2023/08/18 06:21:01;;;;;;;3.10;2.03;;;;;;;;;;5109286;28;20465;-56
2023/08/18 06:23:29;;;;;;;2.93;1.80;;;;;;;;;;5107404;28;20937;-58
2023/08/18 06:25:57;;;;;;;2.87;2.10;;;;;;;;;;5089035;28;20440;-59
2023/08/18 06:28:25;;;;;;;3.27;2.37;;;;;;;;;;5099355;28;20824;-55
2023/08/18 06:30:52;;;;;;;3.30;2.00;;;;;;;;;;5095206;28;20536;-56
2023/08/18 06:33:21;;;;;;;4.70;2.00;;;;;;;;;;5110148;28;20486;-57
2023/08/18 06:35:49;;;;;;;3.17;1.70;;;;;;;;;;5107213;28;20502;-57
2023/08/18 06:38:17;;;;;;;2.80;1.93;;;;;;;;;;5090741;28;20442;-58
2023/08/18 06:40:46;;;;;;;3.80;2.10;;;;;;;;;;5093953;28;20440;-57
2023/08/18 06:43:13;;;;;;;3.00;2.13;;;;;;;;;;5098199;28;20456;-58
2023/08/18 06:45:40;;;;;;;2.53;1.87;;;;;;;;;;5095517;28;20434;-57
2023/08/18 06:48:08;;;;;;;2.50;1.90;;;;;;;;;;5095312;28;20523;-57
2023/08/18 06:50:36;;;;;;;2.40;1.90;;;;;;;;;;5091244;28;20471;-58
2023/08/18 06:53:04;;;;;;;3.40;2.03;;;;;;;;;;5094310;28;20538;-57
2023/08/18 06:55:31;;;;;;;2.90;1.60;;;;;;;;;;5094038;28;20603;-58
2023/08/18 06:57:59;;;;;;;3.03;1.90;;;;;;;;;;5094421;28;20953;-58
2023/08/18 07:00:26;;;;;;;5.23;2.00;;;;;;;;;;5093170;28;20531;-57
2023/08/18 07:02:54;;;;;;;3.27;1.70;;;;;;;;;;5094177;28;20547;-57
2023/08/18 07:05:23;;;;;;;3.53;2.33;;;;;;;;;;5094082;28;20431;-56
2023/08/18 07:07:52;;;;;;;3.57;1.60;;;;;;;;;;5094172;28;20988;-58
2023/08/18 07:10:20;;;;;;;3.20;2.13;;;;;;;;;;5093931;28;20474;-58
2023/08/18 07:12:47;;;;;;;4.47;1.97;;;;;;;;;;5094142;28;20733;-58
2023/08/18 07:15:15;;;;;;;4.07;2.20;;;;;;;;;;5094002;28;20492;-57
2023/08/18 07:17:42;;;;;;;3.10;1.83;;;;;;;;;;5093464;28;20501;-58
2023/08/18 07:20:12;;;;;;;4.37;1.70;;;;;;;;;;5093030;28;20911;-55
2023/08/18 07:22:39;;;;;;;5.10;1.80;;;;;;;;;;5092975;28;20471;-56
2023/08/18 07:25:10;;;;;;;3.83;2.07;;;;;;;;;;5093129;28;20439;-56
2023/08/18 07:27:37;;;;;;;2.50;1.60;;;;;;;;;;5092195;28;20523;-58
2023/08/18 07:30:06;;;;;;;2.90;2.07;;;;;;;;;;5094055;28;20510;-57
2023/08/18 07:32:33;;;;;;;3.40;1.97;;;;;;;;;;5093619;28;20895;-58
2023/08/18 07:35:00;;;;;;;4.80;1.80;;;;;;;;;;5092151;28;20488;-56
2023/08/18 07:37:27;;;;;;;3.10;1.70;;;;;;;;;;5092958;28;20467;-56
2023/08/18 07:39:55;;;;;;;4.37;1.63;;;;;;;;;;5091351;28;20883;-58
2023/08/18 07:42:23;;;;;;;2.93;1.70;;;;;;;;;;5092468;28;20495;-58
2023/08/18 07:44:50;;;;;;;3.60;1.87;;;;;;;;;;5092796;28;20439;-57
2023/08/18 07:47:18;;;;;;;2.63;1.77;;;;;;;;;;5092831;28;20447;-59
2023/08/18 07:49:46;;;;;;;4.00;1.70;;;;;;;;;;5092248;28;20852;-59
2023/08/18 07:52:13;;;;;;;4.03;1.60;;;;;;;;;;5092023;28;20456;-57
2023/08/18 07:54:41;;;;;;;2.80;1.50;;;;;;;;;;5091221;28;20444;-56
2023/08/18 07:57:08;;;;;;;3.27;1.60;;;;;;;;;;5092092;28;20461;-56
2023/08/18 07:59:36;;;;;;;2.77;1.60;;;;;;;;;;5092301;28;20463;-57
2023/08/18 08:02:04;;;;;;;2.70;1.40;;;;;;;;;;5091115;28;20539;-58
2023/08/18 08:04:31;;;;;;;2.33;1.53;;;;;;;;;;5091785;28;20882;-56
2023/08/18 08:06:59;;;;;;;3.40;1.70;;;;;;;;;;5091164;28;20444;-56
2023/08/18 08:09:26;;;;;;;2.70;1.57;;;;;;;;;;5106285;28;20758;-57
2023/08/18 08:11:54;;;;;;;3.10;2.00;;;;;;;;;;5095979;28;20463;-57
2023/08/18 08:14:21;;;;;;;2.70;1.43;;;;;;;;;;5111826;28;20480;-57
2023/08/18 08:16:50;;;;;;;4.43;1.80;;;;;;;;;;5106344;28;20435;-58
2023/08/18 08:19:17;;;;;;;3.47;1.70;;;;;;;;;;5098694;28;20937;-56
2023/08/18 08:21:44;;;;;;;3.80;1.77;;;;;;;;;;5112600;28;20494;-57
2023/08/18 08:24:12;;;;;;;2.90;1.90;;;;;;;;;;5107897;28;20936;-56
2023/08/18 08:26:39;;;;;;;2.70;1.70;;;;;;;;;;5092771;28;20801;-56
2023/08/18 08:29:06;;;;;;;2.57;1.73;;;;;;;;;;5102163;28;21000;-58
2023/08/18 08:31:34;;;;;;;2.30;1.43;;;;;;;;;;5118554;22;20476;-87
2023/08/18 08:34:03;;;;;;;2.77;1.53;;;;;;;;;;5073055;28;20437;-87
2023/08/18 08:36:32;;;;;;;2.40;1.80;;;;;;;;;;5073212;28;20477;-86
2023/08/18 08:39:00;;;;;;;2.43;1.47;;;;;;;;;;5071027;28;20449;-87
2023/08/18 08:41:28;;;;;;;2.83;1.73;;;;;;;;;;5074116;28;20471;-89
2023/08/18 08:46:35;;;;;;;3.27;1.67;;;;;;;;;;5045747;28;20492;-58
2023/08/18 08:49:05;;;;;;;3.13;2.00;;;;;;;;;;5051269;28;21024;-59
2023/08/18 08:51:35;;;;;;;3.50;1.90;;;;;;;;;;5046093;28;20904;-57
2023/08/18 08:54:03;;;;;;;4.63;2.00;;;;;;;;;;5046457;28;20517;-58
2023/08/18 08:56:32;;;;;;;2.37;1.37;;;;;;;;;;5051428;28;20488;-56
2023/08/18 08:58:59;;;;;;;2.40;1.60;;;;;;;;;;5051966;28;20487;-56
2023/08/18 09:01:27;;;;;;;2.30;1.53;;;;;;;;;;5051503;28;20480;-57
2023/08/18 09:03:55;;;;;;;3.13;1.60;;;;;;;;;;5051396;28;20445;-56
2023/08/18 09:06:24;;;;;;;2.30;1.40;;;;;;;;;;5051446;28;20476;-57
2023/08/18 09:08:51;;;;;;;2.30;1.60;;;;;;;;;;5047902;28;20524;-58
2023/08/18 09:11:19;;;;;;;4.53;1.60;;;;;;;;;;5050069;28;20540;-57
2023/08/18 09:13:46;;;;;;;2.37;1.33;;;;;;;;;;5049073;28;20503;-57
2023/08/18 09:16:13;;;;;;;2.60;1.70;;;;;;;;;;5051436;28;20502;-57
2023/08/18 09:18:41;;;;;;;2.70;1.70;;;;;;;;;;5051235;28;20886;-57
2023/08/18 09:21:09;;;;;;;2.60;1.70;;;;;;;;;;5051212;28;20664;-58
2023/08/18 09:23:37;;;;;;;2.43;1.50;;;;;;;;;;5049635;28;20663;-58
2023/08/18 09:26:06;;;;;;;3.00;1.73;;;;;;;;;;5050434;28;20476;-57
2023/08/18 09:28:33;;;;;;;5.27;1.73;;;;;;;;;;5050362;28;20746;-58
2023/08/18 09:31:00;;;;;;;3.67;1.97;;;;;;;;;;5050288;28;20465;-58
2023/08/18 09:33:30;;;;;;;4.97;2.00;;;;;;;;;;5050785;28;20536;-57
2023/08/18 09:36:00;;;;;;;2.33;1.60;;;;;;;;;;5050916;28;20928;-56
2023/08/18 09:38:30;;;;;;;3.70;1.60;;;;;;;;;;5050561;28;20437;-56
2023/08/18 09:40:58;;;;;;;5.40;2.67;;;;;;;;;;5050954;28;20811;-56
2023/08/18 09:43:26;;;;;;;4.97;3.03;;;;;;;;;;5050794;28;20457;-57
2023/08/18 09:45:54;;;;;;;6.60;3.13;;;;;;;;;;5050921;28;20891;-57
2023/08/18 09:48:23;;;;;;;5.60;3.23;;;;;;;;;;5051141;28;20441;-57
2023/08/18 09:50:50;;;;;;;3.30;2.20;;;;;;;;;;5050116;28;20487;-57
2023/08/18 09:53:19;;;;;;;23.40;7.53;;;;;;;;;;5050692;28;20465;-57
2023/08/18 09:55:46;;;;;;;19.23;5.20;;;;;;;;;;5050527;28;20928;-56
2023/08/18 09:58:17;;;;;;;3.30;2.23;;;;;;;;;;5050916;28;20870;-58
2023/08/18 10:00:45;;;;;;;15.20;6.07;;;;;;;;;;5050666;28;20850;-57
2023/08/18 10:03:15;;;;;;;3.03;2.00;;;;;;;;;;5050381;28;20545;-56
2023/08/18 10:05:43;;;;;;;7.70;2.90;;;;;;;;;;5050595;28;20445;-57
2023/08/18 10:08:11;;;;;;;3.40;1.70;;;;;;;;;;5049783;28;20920;-57
2023/08/18 10:10:38;;;;;;;5.30;2.13;;;;;;;;;;5050315;28;20564;-56
2023/08/18 10:13:07;;;;;;;3.00;1.73;;;;;;;;;;5049880;28;20535;-57
2023/08/18 10:15:37;;;;;;;3.07;2.10;;;;;;;;;;5050270;28;20528;-57
2023/08/18 10:18:09;;;;;;;2.97;1.63;;;;;;;;;;5046875;28;20645;-56
2023/08/18 10:20:36;;;;;;;3.53;1.80;;;;;;;;;;5049235;28;20444;-56
2023/08/18 10:23:03;;;;;;;3.20;2.10;;;;;;;;;;5047498;28;20453;-57
2023/08/18 10:25:35;;;;;;;2.43;1.30;;;;;;;;;;5048609;28;20468;-56
2023/08/18 10:28:07;;;;;;;3.90;2.17;;;;;;;;;;5047290;28;20495;-57
2023/08/18 10:30:35;;;;;;;2.47;1.77;;;;;;;;;;5049145;28;20504;-57
2023/08/18 10:33:08;;;;;;;2.37;1.90;;;;;;;;;;5048643;28;20534;-57
2023/08/18 10:35:39;;;;;;;2.67;1.87;;;;;;;;;;5049744;28;20469;-57
2023/08/18 10:38:06;;;;;;;2.10;1.50;;;;;;;;;;5047655;28;20433;-57
2023/08/18 10:40:34;;;;;;;3.80;1.93;;;;;;;;;;5048009;28;20436;-57
2023/08/18 10:43:04;;;;;;;3.13;1.70;;;;;;;;;;5047449;28;20871;-57
2023/08/18 10:45:32;;;;;;;2.73;1.70;;;;;;;;;;5047004;28;20863;-57
2023/08/18 10:48:02;;;;;;;2.90;1.67;;;;;;;;;;5047811;28;20425;-56
2023/08/18 10:50:30;;;;;;;2.53;1.53;;;;;;;;;;5048218;28;20483;-57
2023/08/18 10:52:58;;;;;;;2.40;1.40;;;;;;;;;;5048324;28;20507;-56
2023/08/18 10:55:26;;;;;;;2.80;1.97;;;;;;;;;;5045130;28;20736;-56
2023/08/18 10:57:53;;;;;;;2.70;1.97;;;;;;;;;;5047040;28;20693;-56
2023/08/18 11:00:21;;;;;;;2.30;1.50;;;;;;;;;;5048953;28;20441;-57
2023/08/18 11:02:49;;;;;;;2.40;1.50;;;;;;;;;;5048741;28;20545;-58
2023/08/18 11:05:19;;;;;;;2.30;1.30;;;;;;;;;;5037923;28;20503;-56
2023/08/18 11:07:46;;;;;;;3.10;1.60;;;;;;;;;;5039170;28;20474;-57
2023/08/18 11:10:18;;;;;;;3.40;1.80;;;;;;;;;;5046143;28;21057;-57
2023/08/18 11:12:46;;;;;;;2.47;1.63;;;;;;;;;;5047249;28;20469;-57
2023/08/18 11:15:13;;;;;;;2.83;1.60;;;;;;;;;;5047517;28;20444;-57
2023/08/18 11:17:41;;;;;;;2.57;1.73;;;;;;;;;;5043975;28;20446;-57
2023/08/18 11:20:11;;;;;;;2.70;2.10;;;;;;;;;;5048656;28;20522;-56
2023/08/18 11:22:40;;;;;;;3.00;2.33;;;;;;;;;;5047816;28;21035;-58
2023/08/18 11:25:08;;;;;;;3.00;1.67;;;;;;;;;;5048460;28;20503;-56
2023/08/18 11:27:36;;;;;;;2.53;1.67;;;;;;;;;;5048941;28;20936;-56
2023/08/18 11:30:04;;;;;;;4.83;1.97;;;;;;;;;;5049256;28;20469;-55
2023/08/18 11:32:31;;;;;;;3.10;2.17;;;;;;;;;;5049343;28;20875;-56
2023/08/18 11:35:00;;;;;;;2.80;1.93;;;;;;;;;;5048865;28;20468;-55
2023/08/18 11:37:28;;;;;;;3.23;2.00;;;;;;;;;;5049946;28;20943;-57
2023/08/18 11:39:56;;;;;;;3.00;1.57;;;;;;;;;;5053281;28;20437;-56
2023/08/18 11:42:23;;;;;;;3.33;1.93;;;;;;;;;;5052954;28;20453;-57
2023/08/18 11:44:51;;;;;;;3.93;1.87;;;;;;;;;;5052715;28;20457;-56
2023/08/18 11:47:19;;;;;;;3.90;1.83;;;;;;;;;;5046949;28;20648;-57
2023/08/18 11:49:47;;;;;;;3.17;1.40;;;;;;;;;;5051539;28;20448;-57
2023/08/18 11:52:16;;;;;;;2.30;1.43;;;;;;;;;;5050318;28;20839;-57
2023/08/18 11:54:43;;;;;;;4.00;1.57;;;;;;;;;;5051324;28;20531;-56
2023/08/18 11:57:15;;;;;;;2.37;1.43;;;;;;;;;;5051449;28;20533;-57
2023/08/18 11:59:46;;;;;;;3.47;1.80;;;;;;;;;;5051110;28;20441;-56
2023/08/18 12:02:13;;;;;;;2.77;1.80;;;;;;;;;;5052244;28;20460;-57
2023/08/18 12:04:43;;;;;;;4.10;1.60;;;;;;;;;;5052784;28;20477;-56
2023/08/18 12:07:11;;;;;;;2.57;1.83;;;;;;;;;;5052663;28;20487;-56
2023/08/18 12:09:38;;;;;;;2.47;1.73;;;;;;;;;;5052696;28;20532;-57
2023/08/18 12:12:15;;;;;;;4.30;1.80;;;;;;;;;;5052474;28;20477;-56
2023/08/18 12:14:42;;;;;;;3.50;1.80;;;;;;;;;;5048314;28;20441;-57
2023/08/18 12:17:10;;;;;;;2.60;1.67;;;;;;;;;;5049480;28;20536;-57
2023/08/18 12:19:37;;;;;;;3.47;1.93;;;;;;;;;;5051726;28;21105;-56
2023/08/18 12:22:05;;;;;;;3.30;1.40;;;;;;;;;;5050950;28;20453;-56
2023/08/18 12:24:32;;;;;;;2.83;1.60;;;;;;;;;;5051956;28;20502;-57
2023/08/18 12:26:59;;;;;;;2.40;1.53;;;;;;;;;;5052277;28;20434;-55
2023/08/18 12:29:28;;;;;;;2.40;1.70;;;;;;;;;;5052284;28;20616;-56
2023/08/18 12:31:55;;;;;;;2.63;1.80;;;;;;;;;;5049142;28;20565;-56
2023/08/18 12:34:22;;;;;;;2.83;1.67;;;;;;;;;;5051879;28;20943;-57
2023/08/18 12:36:49;;;;;;;2.63;1.83;;;;;;;;;;5051551;28;20481;-57
2023/08/18 12:39:17;;;;;;;2.50;1.83;;;;;;;;;;5051686;28;20438;-57
2023/08/18 12:41:44;;;;;;;2.40;1.70;;;;;;;;;;5051602;28;20683;-57
2023/08/18 12:44:12;;;;;;;2.77;1.53;;;;;;;;;;5051792;28;20525;-55
2023/08/18 12:46:41;;;;;;;2.20;1.40;;;;;;;;;;5051962;28;20441;-55
2023/08/18 12:49:08;;;;;;;2.07;1.40;;;;;;;;;;5051216;28;20959;-56
2023/08/18 12:51:35;;;;;;;2.83;1.70;;;;;;;;;;5051537;28;20512;-56
2023/08/18 12:54:03;;;;;;;2.77;2.07;;;;;;;;;;5051529;28;20437;-56
2023/08/18 12:56:30;;;;;;;2.43;1.50;;;;;;;;;;5051937;28;20441;-57
2023/08/18 12:58:58;;;;;;;2.87;1.77;;;;;;;;;;5051305;28;20939;-56
2023/08/18 13:01:25;;;;;;;3.13;1.70;;;;;;;;;;5051304;28;20469;-58
2023/08/18 13:03:54;;;;;;;2.50;1.77;;;;;;;;;;5046237;28;20449;-56
2023/08/18 13:06:21;;;;;;;2.60;1.80;;;;;;;;;;5043680;28;20484;-56
2023/08/18 13:08:48;;;;;;;2.77;1.90;;;;;;;;;;5050825;28;20512;-57
2023/08/18 13:11:15;;;;;;;3.60;1.63;;;;;;;;;;5050417;28;20523;-57
2023/08/18 13:13:43;;;;;;;2.93;2.07;;;;;;;;;;5045417;28;20485;-56
2023/08/18 13:16:10;;;;;;;2.43;1.80;;;;;;;;;;5050686;28;20499;-56
2023/08/18 13:18:37;;;;;;;2.37;1.30;;;;;;;;;;5051384;28;20517;-56
2023/08/18 13:21:08;;;;;;;2.30;1.50;;;;;;;;;;5051034;28;20437;-56
2023/08/18 13:23:36;;;;;;;2.60;1.63;;;;;;;;;;5050538;28;20461;-56
2023/08/18 13:26:03;;;;;;;3.10;2.23;;;;;;;;;;5051177;28;20442;-56
2023/08/18 13:28:30;;;;;;;3.00;1.80;;;;;;;;;;5051128;28;21109;-56
2023/08/18 13:30:58;;;;;;;2.80;1.80;;;;;;;;;;5051020;28;20572;-57
2023/08/18 13:33:25;;;;;;;2.17;1.20;;;;;;;;;;5050771;28;20503;-58
2023/08/18 13:35:52;;;;;;;3.63;1.73;;;;;;;;;;5051138;28;20496;-56
2023/08/18 13:38:21;;;;;;;2.60;1.43;;;;;;;;;;5051074;28;20592;-59
2023/08/18 13:40:49;;;;;;;3.27;1.90;;;;;;;;;;5050790;28;20514;-58
2023/08/18 13:43:16;;;;;;;3.97;1.93;;;;;;;;;;5050780;28;20507;-56
2023/08/18 13:45:43;;;;;;;2.30;1.40;;;;;;;;;;5050564;28;20483;-57
2023/08/18 13:48:12;;;;;;;3.10;1.87;;;;;;;;;;5050965;28;20484;-56
2023/08/18 13:50:39;;;;;;;2.50;1.60;;;;;;;;;;5050038;28;20438;-56
2023/08/18 13:53:11;;;;;;;2.90;1.80;;;;;;;;;;5045901;28;20536;-57
2023/08/18 13:55:40;;;;;;;2.33;1.70;;;;;;;;;;5043112;28;21035;-56
2023/08/18 13:58:07;;;;;;;3.83;1.90;;;;;;;;;;5044783;28;20513;-56
2023/08/18 14:00:34;;;;;;;3.80;2.20;;;;;;;;;;5049366;28;20456;-58
2023/08/18 14:03:01;;;;;;;2.90;1.73;;;;;;;;;;5049938;28;20532;-57
2023/08/18 14:05:29;;;;;;;2.57;1.57;;;;;;;;;;5051068;28;20516;-57
2023/08/18 14:07:56;;;;;;;2.43;1.60;;;;;;;;;;5050622;28;20469;-57
2023/08/18 14:10:23;;;;;;;2.60;1.80;;;;;;;;;;5050083;28;20429;-56
2023/08/18 14:12:52;;;;;;;3.90;2.30;;;;;;;;;;5049710;28;20485;-57
2023/08/18 14:15:19;;;;;;;2.47;1.83;;;;;;;;;;5050637;28;20524;-57
2023/08/18 14:17:47;;;;;;;4.90;2.07;;;;;;;;;;5050639;28;20763;-56
2023/08/18 14:20:17;;;;;;;3.83;1.90;;;;;;;;;;5050181;28;20472;-57
2023/08/18 14:22:46;;;;;;;4.93;2.60;;;;;;;;;;5049862;28;20831;-56
2023/08/18 14:25:13;;;;;;;3.73;2.20;;;;;;;;;;5050266;28;20994;-57
2023/08/18 14:27:40;;;;;;;5.70;2.33;;;;;;;;;;5050340;28;20583;-57
2023/08/18 14:30:09;;;;;;;5.13;2.10;;;;;;;;;;5050127;28;20452;-56
2023/08/18 14:32:37;;;;;;;7.33;2.47;;;;;;;;;;5061105;23;20569;-57
2023/08/18 14:35:05;;;;;;;4.50;2.17;;;;;;;;;;5050380;28;20453;-56
2023/08/18 14:37:32;;;;;;;3.30;2.60;;;;;;;;;;5050293;28;20503;-58
2023/08/18 14:40:00;;;;;;;4.97;2.27;;;;;;;;;;5050221;28;20459;-58
2023/08/18 14:42:28;;;;;;;5.30;2.20;;;;;;;;;;5050082;28;20465;-56
2023/08/18 14:44:55;;;;;;;3.67;2.63;;;;;;;;;;5050199;28;20433;-58
2023/08/18 14:47:23;;;;;;;4.47;2.37;;;;;;;;;;5050467;28;20520;-58
2023/08/18 14:49:51;;;;;;;3.23;2.17;;;;;;;;;;5050172;28;20524;-58